sensor_id;sensor_type;location;lat;lon;timestamp;P1;durP1;ratioP1;P2;durP2;ratioP2
5507;SDS011;2776;51.046;6.772;2023-02-07T00:02:17;12.03;;;7.00;;
5507;SDS011;2776;51.046;6.772;2023-02-07T00:04:44;15.40;;;7.23;;
5507;SDS011;2776;51.046;6.772;2023-02-07T00:07:10;17.80;;;7.53;;
5507;SDS011;2776;51.046;6.772;2023-02-07T00:09:39;18.17;;;7.10;;
5507;SDS011;2776;51.046;6.772;2023-02-07T00:12:06;16.00;;;8.07;;
5507;SDS011;2776;51.046;6.772;2023-02-07T00:14:33;16.60;;;7.67;;
5507;SDS011;2776;51.046;6.772;2023-02-07T00:17:00;16.67;;;8.43;;
5507;SDS011;2776;51.046;6.772;2023-02-07T00:19:26;16.40;;;7.50;;
5507;SDS011;2776;51.046;6.772;2023-02-07T00:21:53;17.20;;;8.10;;
5507;SDS011;2776;51.046;6.772;2023-02-07T00:24:20;19.43;;;8.00;;
5507;SDS011;2776;51.046;6.772;2023-02-07T00:26:48;21.93;;;8.80;;
5507;SDS011;2776;51.046;6.772;2023-02-07T00:29:16;14.53;;;8.43;;
5507;SDS011;2776;51.046;6.772;2023-02-07T00:31:43;15.63;;;7.27;;
5507;SDS011;2776;51.046;6.772;2023-02-07T00:34:10;15.00;;;7.33;;
5507;SDS011;2776;51.046;6.772;2023-02-07T00:36:37;14.00;;;7.07;;
5507;SDS011;2776;51.046;6.772;2023-02-07T00:39:05;14.67;;;7.77;;
5507;SDS011;2776;51.046;6.772;2023-02-07T00:41:34;16.83;;;8.00;;
5507;SDS011;2776;51.046;6.772;2023-02-07T00:44:02;17.33;;;8.23;;
5507;SDS011;2776;51.046;6.772;2023-02-07T00:46:29;11.00;;;7.13;;
5507;SDS011;2776;51.046;6.772;2023-02-07T00:48:56;13.93;;;7.27;;
5507;SDS011;2776;51.046;6.772;2023-02-07T00:51:23;14.83;;;7.23;;
5507;SDS011;2776;51.046;6.772;2023-02-07T00:53:50;12.83;;;7.20;;
5507;SDS011;2776;51.046;6.772;2023-02-07T00:56:19;15.70;;;7.10;;
5507;SDS011;2776;51.046;6.772;2023-02-07T00:58:46;16.00;;;7.40;;
5507;SDS011;2776;51.046;6.772;2023-02-07T01:01:14;10.80;;;6.57;;
5507;SDS011;2776;51.046;6.772;2023-02-07T01:03:41;17.87;;;7.10;;
5507;SDS011;2776;51.046;6.772;2023-02-07T01:06:08;12.43;;;6.77;;
5507;SDS011;2776;51.046;6.772;2023-02-07T01:08:35;15.80;;;7.50;;
5507;SDS011;2776;51.046;6.772;2023-02-07T01:11:03;10.83;;;7.37;;
5507;SDS011;2776;51.046;6.772;2023-02-07T01:13:32;16.57;;;7.80;;
5507;SDS011;2776;51.046;6.772;2023-02-07T01:15:59;12.07;;;7.17;;
5507;SDS011;2776;51.046;6.772;2023-02-07T01:18:28;12.03;;;7.50;;
5507;SDS011;2776;51.046;6.772;2023-02-07T01:20:55;13.17;;;7.50;;
5507;SDS011;2776;51.046;6.772;2023-02-07T01:23:22;13.20;;;7.57;;
5507;SDS011;2776;51.046;6.772;2023-02-07T01:25:49;14.50;;;7.03;;
5507;SDS011;2776;51.046;6.772;2023-02-07T01:28:15;15.70;;;7.23;;
5507;SDS011;2776;51.046;6.772;2023-02-07T01:30:42;11.03;;;6.10;;
5507;SDS011;2776;51.046;6.772;2023-02-07T01:33:10;13.10;;;7.67;;
5507;SDS011;2776;51.046;6.772;2023-02-07T01:35:38;11.57;;;6.70;;
5507;SDS011;2776;51.046;6.772;2023-02-07T01:38:04;11.90;;;7.00;;
5507;SDS011;2776;51.046;6.772;2023-02-07T01:40:34;11.57;;;6.90;;
5507;SDS011;2776;51.046;6.772;2023-02-07T01:43:01;12.43;;;7.63;;
5507;SDS011;2776;51.046;6.772;2023-02-07T01:45:29;15.17;;;6.93;;
5507;SDS011;2776;51.046;6.772;2023-02-07T01:48:00;18.03;;;7.63;;
5507;SDS011;2776;51.046;6.772;2023-02-07T01:50:30;12.30;;;6.60;;
5507;SDS011;2776;51.046;6.772;2023-02-07T01:52:59;12.10;;;6.07;;
5507;SDS011;2776;51.046;6.772;2023-02-07T01:55:29;9.40;;;6.43;;
5507;SDS011;2776;51.046;6.772;2023-02-07T01:58:00;11.80;;;6.03;;
5507;SDS011;2776;51.046;6.772;2023-02-07T02:00:28;11.87;;;6.73;;
5507;SDS011;2776;51.046;6.772;2023-02-07T02:02:55;11.50;;;6.87;;
5507;SDS011;2776;51.046;6.772;2023-02-07T02:05:22;13.17;;;6.60;;
5507;SDS011;2776;51.046;6.772;2023-02-07T02:07:50;10.20;;;6.00;;
5507;SDS011;2776;51.046;6.772;2023-02-07T02:10:19;11.23;;;6.50;;
5507;SDS011;2776;51.046;6.772;2023-02-07T02:12:52;11.83;;;6.63;;
5507;SDS011;2776;51.046;6.772;2023-02-07T02:15:33;13.00;;;6.90;;
5507;SDS011;2776;51.046;6.772;2023-02-07T02:18:13;13.17;;;7.00;;
5507;SDS011;2776;51.046;6.772;2023-02-07T02:27:12;11.90;;;6.50;;
5507;SDS011;2776;51.046;6.772;2023-02-07T02:30:02;10.63;;;6.27;;
5507;SDS011;2776;51.046;6.772;2023-02-07T02:33:15;12.87;;;6.30;;
5507;SDS011;2776;51.046;6.772;2023-02-07T02:35:54;11.30;;;5.67;;
5507;SDS011;2776;51.046;6.772;2023-02-07T02:38:25;11.73;;;6.40;;
5507;SDS011;2776;51.046;6.772;2023-02-07T02:40:58;9.87;;;5.63;;
5507;SDS011;2776;51.046;6.772;2023-02-07T02:43:30;10.93;;;6.30;;
5507;SDS011;2776;51.046;6.772;2023-02-07T02:46:02;15.67;;;7.47;;
5507;SDS011;2776;51.046;6.772;2023-02-07T02:48:33;11.00;;;6.63;;
5507;SDS011;2776;51.046;6.772;2023-02-07T02:51:01;14.90;;;7.37;;
5507;SDS011;2776;51.046;6.772;2023-02-07T02:53:29;14.70;;;7.47;;
5507;SDS011;2776;51.046;6.772;2023-02-07T02:56:09;14.73;;;7.00;;
5507;SDS011;2776;51.046;6.772;2023-02-07T02:58:49;10.30;;;6.23;;
5507;SDS011;2776;51.046;6.772;2023-02-07T03:01:34;10.90;;;6.67;;
5507;SDS011;2776;51.046;6.772;2023-02-07T03:04:23;13.57;;;7.30;;
5507;SDS011;2776;51.046;6.772;2023-02-07T03:07:01;9.67;;;5.83;;
5507;SDS011;2776;51.046;6.772;2023-02-07T03:09:40;13.73;;;7.40;;
5507;SDS011;2776;51.046;6.772;2023-02-07T03:12:15;11.77;;;6.53;;
5507;SDS011;2776;51.046;6.772;2023-02-07T03:14:50;11.17;;;6.40;;
5507;SDS011;2776;51.046;6.772;2023-02-07T03:17:24;9.90;;;6.47;;
5507;SDS011;2776;51.046;6.772;2023-02-07T03:19:57;12.00;;;7.43;;
5507;SDS011;2776;51.046;6.772;2023-02-07T03:22:30;14.83;;;6.77;;
5507;SDS011;2776;51.046;6.772;2023-02-07T03:24:58;12.07;;;7.23;;
5507;SDS011;2776;51.046;6.772;2023-02-07T03:27:28;12.60;;;7.10;;
5507;SDS011;2776;51.046;6.772;2023-02-07T03:29:57;9.87;;;6.80;;
5507;SDS011;2776;51.046;6.772;2023-02-07T03:32:27;13.63;;;7.43;;
5507;SDS011;2776;51.046;6.772;2023-02-07T03:34:58;12.50;;;7.07;;
5507;SDS011;2776;51.046;6.772;2023-02-07T03:37:31;13.20;;;7.53;;
5507;SDS011;2776;51.046;6.772;2023-02-07T03:40:02;12.63;;;7.10;;
5507;SDS011;2776;51.046;6.772;2023-02-07T03:42:30;10.17;;;6.47;;
5507;SDS011;2776;51.046;6.772;2023-02-07T03:45:00;9.97;;;6.50;;
5507;SDS011;2776;51.046;6.772;2023-02-07T03:47:28;10.70;;;6.37;;
5507;SDS011;2776;51.046;6.772;2023-02-07T03:49:55;13.07;;;6.70;;
5507;SDS011;2776;51.046;6.772;2023-02-07T03:52:23;11.17;;;6.97;;
5507;SDS011;2776;51.046;6.772;2023-02-07T03:54:50;14.37;;;6.83;;
5507;SDS011;2776;51.046;6.772;2023-02-07T03:57:17;14.00;;;7.97;;
5507;SDS011;2776;51.046;6.772;2023-02-07T03:59:44;11.47;;;6.70;;
5507;SDS011;2776;51.046;6.772;2023-02-07T04:02:10;10.23;;;6.43;;
5507;SDS011;2776;51.046;6.772;2023-02-07T04:04:37;13.40;;;6.60;;
5507;SDS011;2776;51.046;6.772;2023-02-07T04:07:04;13.30;;;7.27;;
5507;SDS011;2776;51.046;6.772;2023-02-07T04:09:32;14.57;;;8.07;;
5507;SDS011;2776;51.046;6.772;2023-02-07T04:11:59;12.47;;;7.20;;
5507;SDS011;2776;51.046;6.772;2023-02-07T04:14:26;15.40;;;7.63;;
5507;SDS011;2776;51.046;6.772;2023-02-07T04:16:53;12.00;;;7.20;;
5507;SDS011;2776;51.046;6.772;2023-02-07T04:19:20;14.83;;;7.60;;
5507;SDS011;2776;51.046;6.772;2023-02-07T04:21:47;11.80;;;7.57;;
5507;SDS011;2776;51.046;6.772;2023-02-07T04:24:14;15.33;;;7.07;;
5507;SDS011;2776;51.046;6.772;2023-02-07T04:26:42;14.77;;;7.07;;
5507;SDS011;2776;51.046;6.772;2023-02-07T04:29:09;12.20;;;6.73;;
5507;SDS011;2776;51.046;6.772;2023-02-07T04:31:36;16.20;;;8.20;;
5507;SDS011;2776;51.046;6.772;2023-02-07T04:34:03;15.80;;;7.90;;
5507;SDS011;2776;51.046;6.772;2023-02-07T04:36:30;14.50;;;7.33;;
5507;SDS011;2776;51.046;6.772;2023-02-07T04:38:56;13.63;;;7.23;;
5507;SDS011;2776;51.046;6.772;2023-02-07T04:41:23;15.30;;;8.63;;
5507;SDS011;2776;51.046;6.772;2023-02-07T04:43:51;13.97;;;8.13;;
5507;SDS011;2776;51.046;6.772;2023-02-07T04:46:18;16.83;;;7.80;;
5507;SDS011;2776;51.046;6.772;2023-02-07T04:48:45;16.23;;;7.73;;
5507;SDS011;2776;51.046;6.772;2023-02-07T04:51:13;13.17;;;7.50;;
5507;SDS011;2776;51.046;6.772;2023-02-07T04:53:40;13.20;;;7.57;;
5507;SDS011;2776;51.046;6.772;2023-02-07T04:56:07;14.63;;;6.77;;
5507;SDS011;2776;51.046;6.772;2023-02-07T04:58:33;13.90;;;7.40;;
5507;SDS011;2776;51.046;6.772;2023-02-07T05:01:01;14.63;;;8.03;;
5507;SDS011;2776;51.046;6.772;2023-02-07T05:03:28;14.13;;;7.93;;
5507;SDS011;2776;51.046;6.772;2023-02-07T05:05:55;12.33;;;7.57;;
5507;SDS011;2776;51.046;6.772;2023-02-07T05:08:22;12.23;;;7.73;;
5507;SDS011;2776;51.046;6.772;2023-02-07T05:10:50;13.53;;;7.23;;
5507;SDS011;2776;51.046;6.772;2023-02-07T05:13:18;13.93;;;6.90;;
5507;SDS011;2776;51.046;6.772;2023-02-07T05:15:45;11.10;;;7.03;;
5507;SDS011;2776;51.046;6.772;2023-02-07T05:18:13;13.53;;;7.13;;
5507;SDS011;2776;51.046;6.772;2023-02-07T05:20:40;13.33;;;7.50;;
5507;SDS011;2776;51.046;6.772;2023-02-07T05:23:07;9.67;;;7.07;;
5507;SDS011;2776;51.046;6.772;2023-02-07T05:25:34;15.03;;;7.53;;
5507;SDS011;2776;51.046;6.772;2023-02-07T05:28:01;10.47;;;6.53;;
5507;SDS011;2776;51.046;6.772;2023-02-07T05:30:28;13.07;;;7.53;;
5507;SDS011;2776;51.046;6.772;2023-02-07T05:32:55;13.83;;;6.97;;
5507;SDS011;2776;51.046;6.772;2023-02-07T05:35:36;11.97;;;6.83;;
5507;SDS011;2776;51.046;6.772;2023-02-07T05:38:05;15.53;;;8.23;;
5507;SDS011;2776;51.046;6.772;2023-02-07T05:40:33;12.50;;;6.80;;
5507;SDS011;2776;51.046;6.772;2023-02-07T05:43:00;12.40;;;7.10;;
5507;SDS011;2776;51.046;6.772;2023-02-07T05:45:27;10.33;;;6.53;;
5507;SDS011;2776;51.046;6.772;2023-02-07T05:47:54;12.77;;;7.07;;
5507;SDS011;2776;51.046;6.772;2023-02-07T05:50:21;10.63;;;6.90;;
5507;SDS011;2776;51.046;6.772;2023-02-07T05:52:50;16.93;;;7.80;;
5507;SDS011;2776;51.046;6.772;2023-02-07T05:55:16;15.23;;;8.10;;
5507;SDS011;2776;51.046;6.772;2023-02-07T05:57:44;11.67;;;6.83;;
5507;SDS011;2776;51.046;6.772;2023-02-07T06:00:11;9.40;;;6.50;;
5507;SDS011;2776;51.046;6.772;2023-02-07T06:02:39;12.40;;;7.13;;
5507;SDS011;2776;51.046;6.772;2023-02-07T06:05:07;10.53;;;6.60;;
5507;SDS011;2776;51.046;6.772;2023-02-07T06:07:36;10.73;;;7.07;;
5507;SDS011;2776;51.046;6.772;2023-02-07T06:10:05;9.30;;;7.07;;
5507;SDS011;2776;51.046;6.772;2023-02-07T06:12:32;12.17;;;7.00;;
5507;SDS011;2776;51.046;6.772;2023-02-07T06:14:59;13.10;;;7.13;;
5507;SDS011;2776;51.046;6.772;2023-02-07T06:17:26;9.63;;;7.00;;
5507;SDS011;2776;51.046;6.772;2023-02-07T06:19:53;9.33;;;6.70;;
5507;SDS011;2776;51.046;6.772;2023-02-07T06:22:20;11.40;;;6.90;;
5507;SDS011;2776;51.046;6.772;2023-02-07T06:24:47;10.50;;;7.00;;
5507;SDS011;2776;51.046;6.772;2023-02-07T06:27:15;10.90;;;6.73;;
5507;SDS011;2776;51.046;6.772;2023-02-07T06:29:42;12.80;;;7.40;;
5507;SDS011;2776;51.046;6.772;2023-02-07T06:32:08;14.43;;;7.20;;
5507;SDS011;2776;51.046;6.772;2023-02-07T06:34:35;10.83;;;6.90;;
5507;SDS011;2776;51.046;6.772;2023-02-07T06:37:02;10.07;;;7.20;;
5507;SDS011;2776;51.046;6.772;2023-02-07T06:39:29;11.73;;;7.40;;
5507;SDS011;2776;51.046;6.772;2023-02-07T06:41:55;13.90;;;7.87;;
5507;SDS011;2776;51.046;6.772;2023-02-07T06:44:23;11.67;;;6.87;;
5507;SDS011;2776;51.046;6.772;2023-02-07T06:46:50;10.77;;;6.60;;
5507;SDS011;2776;51.046;6.772;2023-02-07T06:49:17;11.53;;;7.00;;
5507;SDS011;2776;51.046;6.772;2023-02-07T06:51:44;10.13;;;7.00;;
5507;SDS011;2776;51.046;6.772;2023-02-07T06:54:11;10.67;;;6.67;;
5507;SDS011;2776;51.046;6.772;2023-02-07T06:56:37;10.17;;;6.83;;
5507;SDS011;2776;51.046;6.772;2023-02-07T06:59:04;10.93;;;7.53;;
5507;SDS011;2776;51.046;6.772;2023-02-07T07:01:32;9.63;;;6.57;;
5507;SDS011;2776;51.046;6.772;2023-02-07T07:03:59;11.47;;;6.80;;
5507;SDS011;2776;51.046;6.772;2023-02-07T07:06:26;12.77;;;6.63;;
5507;SDS011;2776;51.046;6.772;2023-02-07T07:08:52;11.33;;;7.47;;
5507;SDS011;2776;51.046;6.772;2023-02-07T07:11:19;10.97;;;6.97;;
5507;SDS011;2776;51.046;6.772;2023-02-07T07:13:46;13.00;;;7.03;;
5507;SDS011;2776;51.046;6.772;2023-02-07T07:16:13;9.93;;;6.77;;
5507;SDS011;2776;51.046;6.772;2023-02-07T07:18:41;11.30;;;7.10;;
5507;SDS011;2776;51.046;6.772;2023-02-07T07:21:08;9.43;;;6.40;;
5507;SDS011;2776;51.046;6.772;2023-02-07T07:23:35;10.90;;;7.40;;
5507;SDS011;2776;51.046;6.772;2023-02-07T07:26:02;13.93;;;7.33;;
5507;SDS011;2776;51.046;6.772;2023-02-07T07:28:29;11.93;;;6.77;;
5507;SDS011;2776;51.046;6.772;2023-02-07T07:31:00;10.67;;;7.13;;
5507;SDS011;2776;51.046;6.772;2023-02-07T07:33:28;11.23;;;6.63;;
5507;SDS011;2776;51.046;6.772;2023-02-07T07:35:57;11.10;;;7.10;;
5507;SDS011;2776;51.046;6.772;2023-02-07T07:38:24;12.63;;;7.40;;
5507;SDS011;2776;51.046;6.772;2023-02-07T07:40:51;13.13;;;8.00;;
5507;SDS011;2776;51.046;6.772;2023-02-07T07:43:18;12.60;;;8.07;;
5507;SDS011;2776;51.046;6.772;2023-02-07T07:45:45;15.47;;;8.33;;
5507;SDS011;2776;51.046;6.772;2023-02-07T07:48:16;13.83;;;8.40;;
5507;SDS011;2776;51.046;6.772;2023-02-07T07:50:43;10.97;;;7.50;;
5507;SDS011;2776;51.046;6.772;2023-02-07T07:53:11;15.37;;;9.03;;
5507;SDS011;2776;51.046;6.772;2023-02-07T07:55:38;13.60;;;9.17;;
5507;SDS011;2776;51.046;6.772;2023-02-07T07:58:04;14.63;;;8.90;;
5507;SDS011;2776;51.046;6.772;2023-02-07T08:00:32;10.93;;;7.53;;
5507;SDS011;2776;51.046;6.772;2023-02-07T08:02:58;11.40;;;6.53;;
5507;SDS011;2776;51.046;6.772;2023-02-07T08:05:25;9.07;;;6.87;;
5507;SDS011;2776;51.046;6.772;2023-02-07T08:07:52;6.27;;;5.37;;
5507;SDS011;2776;51.046;6.772;2023-02-07T08:10:20;9.67;;;5.63;;
5507;SDS011;2776;51.046;6.772;2023-02-07T08:12:47;8.20;;;5.73;;
5507;SDS011;2776;51.046;6.772;2023-02-07T08:15:13;10.07;;;7.37;;
5507;SDS011;2776;51.046;6.772;2023-02-07T08:17:40;13.73;;;8.73;;
5507;SDS011;2776;51.046;6.772;2023-02-07T08:20:07;11.10;;;7.03;;
5507;SDS011;2776;51.046;6.772;2023-02-07T08:22:36;11.73;;;7.70;;
5507;SDS011;2776;51.046;6.772;2023-02-07T08:25:04;9.30;;;5.73;;
5507;SDS011;2776;51.046;6.772;2023-02-07T08:27:33;8.03;;;6.13;;
5507;SDS011;2776;51.046;6.772;2023-02-07T08:30:00;14.20;;;7.00;;
5507;SDS011;2776;51.046;6.772;2023-02-07T08:32:27;8.70;;;6.27;;
5507;SDS011;2776;51.046;6.772;2023-02-07T08:34:53;7.60;;;5.23;;
5507;SDS011;2776;51.046;6.772;2023-02-07T08:37:20;8.60;;;4.70;;
5507;SDS011;2776;51.046;6.772;2023-02-07T08:39:47;7.03;;;4.70;;
5507;SDS011;2776;51.046;6.772;2023-02-07T08:42:16;7.70;;;4.80;;
5507;SDS011;2776;51.046;6.772;2023-02-07T08:44:45;6.03;;;4.73;;
5507;SDS011;2776;51.046;6.772;2023-02-07T08:47:13;7.03;;;4.53;;
5507;SDS011;2776;51.046;6.772;2023-02-07T08:49:40;8.00;;;5.30;;
5507;SDS011;2776;51.046;6.772;2023-02-07T08:52:06;7.17;;;4.83;;
5507;SDS011;2776;51.046;6.772;2023-02-07T08:54:34;6.47;;;4.47;;
5507;SDS011;2776;51.046;6.772;2023-02-07T08:57:01;5.67;;;4.63;;
5507;SDS011;2776;51.046;6.772;2023-02-07T08:59:28;6.77;;;4.97;;
5507;SDS011;2776;51.046;6.772;2023-02-07T09:01:56;4.07;;;3.57;;
5507;SDS011;2776;51.046;6.772;2023-02-07T09:04:23;3.83;;;3.40;;
5507;SDS011;2776;51.046;6.772;2023-02-07T09:06:50;4.10;;;3.67;;
5507;SDS011;2776;51.046;6.772;2023-02-07T09:09:17;3.10;;;2.80;;
5507;SDS011;2776;51.046;6.772;2023-02-07T09:11:44;3.70;;;3.40;;
5507;SDS011;2776;51.046;6.772;2023-02-07T09:14:11;4.60;;;3.27;;
5507;SDS011;2776;51.046;6.772;2023-02-07T09:16:37;4.17;;;3.57;;
5507;SDS011;2776;51.046;6.772;2023-02-07T09:19:06;4.93;;;3.40;;
5507;SDS011;2776;51.046;6.772;2023-02-07T09:21:32;3.90;;;3.50;;
5507;SDS011;2776;51.046;6.772;2023-02-07T09:24:01;3.80;;;3.40;;
5507;SDS011;2776;51.046;6.772;2023-02-07T09:26:28;3.60;;;3.30;;
5507;SDS011;2776;51.046;6.772;2023-02-07T09:28:57;4.10;;;3.70;;
5507;SDS011;2776;51.046;6.772;2023-02-07T09:31:24;3.83;;;3.43;;
5507;SDS011;2776;51.046;6.772;2023-02-07T09:33:50;3.70;;;3.40;;
5507;SDS011;2776;51.046;6.772;2023-02-07T09:36:19;4.47;;;3.70;;
5507;SDS011;2776;51.046;6.772;2023-02-07T09:38:47;4.00;;;3.70;;
5507;SDS011;2776;51.046;6.772;2023-02-07T09:41:18;5.87;;;3.63;;
5507;SDS011;2776;51.046;6.772;2023-02-07T09:43:54;4.03;;;3.27;;
5507;SDS011;2776;51.046;6.772;2023-02-07T09:46:28;5.57;;;3.87;;
5507;SDS011;2776;51.046;6.772;2023-02-07T09:48:59;4.07;;;3.67;;
5507;SDS011;2776;51.046;6.772;2023-02-07T09:51:31;4.03;;;3.63;;
5507;SDS011;2776;51.046;6.772;2023-02-07T09:53:59;4.03;;;3.63;;
5507;SDS011;2776;51.046;6.772;2023-02-07T09:56:29;4.03;;;3.73;;
5507;SDS011;2776;51.046;6.772;2023-02-07T09:58:59;3.80;;;3.47;;
5507;SDS011;2776;51.046;6.772;2023-02-07T10:01:31;4.20;;;3.80;;
5507;SDS011;2776;51.046;6.772;2023-02-07T10:04:05;4.43;;;3.67;;
5507;SDS011;2776;51.046;6.772;2023-02-07T10:06:47;4.70;;;3.90;;
5507;SDS011;2776;51.046;6.772;2023-02-07T10:09:17;4.70;;;4.20;;
5507;SDS011;2776;51.046;6.772;2023-02-07T10:11:48;7.50;;;4.10;;
5507;SDS011;2776;51.046;6.772;2023-02-07T10:17:22;5.07;;;4.10;;
5507;SDS011;2776;51.046;6.772;2023-02-07T10:20:01;5.10;;;4.60;;
5507;SDS011;2776;51.046;6.772;2023-02-07T10:22:41;4.77;;;4.00;;
5507;SDS011;2776;51.046;6.772;2023-02-07T10:25:18;5.77;;;4.57;;
5507;SDS011;2776;51.046;6.772;2023-02-07T10:28:02;5.80;;;4.13;;
5507;SDS011;2776;51.046;6.772;2023-02-07T10:30:53;4.93;;;4.27;;
5507;SDS011;2776;51.046;6.772;2023-02-07T10:33:25;6.77;;;4.03;;
5507;SDS011;2776;51.046;6.772;2023-02-07T10:35:56;5.07;;;4.53;;
5507;SDS011;2776;51.046;6.772;2023-02-07T10:38:29;5.03;;;4.50;;
5507;SDS011;2776;51.046;6.772;2023-02-07T10:41:03;5.43;;;4.43;;
5507;SDS011;2776;51.046;6.772;2023-02-07T10:43:37;5.33;;;4.67;;
5507;SDS011;2776;51.046;6.772;2023-02-07T10:46:07;5.43;;;4.57;;
5507;SDS011;2776;51.046;6.772;2023-02-07T10:48:36;4.17;;;3.83;;
5507;SDS011;2776;51.046;6.772;2023-02-07T10:51:04;5.33;;;4.47;;
5507;SDS011;2776;51.046;6.772;2023-02-07T10:53:48;5.83;;;4.60;;
5507;SDS011;2776;51.046;6.772;2023-02-07T10:56:16;5.00;;;4.50;;
5507;SDS011;2776;51.046;6.772;2023-02-07T10:58:45;5.33;;;4.73;;
5507;SDS011;2776;51.046;6.772;2023-02-07T11:01:18;4.50;;;4.10;;
5507;SDS011;2776;51.046;6.772;2023-02-07T11:03:47;4.70;;;3.90;;
5507;SDS011;2776;51.046;6.772;2023-02-07T11:06:15;5.70;;;3.97;;
5507;SDS011;2776;51.046;6.772;2023-02-07T11:08:52;5.17;;;4.17;;
5507;SDS011;2776;51.046;6.772;2023-02-07T11:11:36;4.50;;;3.63;;
5507;SDS011;2776;51.046;6.772;2023-02-07T11:14:05;5.40;;;4.43;;
5507;SDS011;2776;51.046;6.772;2023-02-07T11:16:33;4.40;;;4.00;;
5507;SDS011;2776;51.046;6.772;2023-02-07T11:19:00;4.40;;;4.00;;
5507;SDS011;2776;51.046;6.772;2023-02-07T11:21:29;4.53;;;4.00;;
5507;SDS011;2776;51.046;6.772;2023-02-07T11:24:03;4.33;;;3.80;;
5507;SDS011;2776;51.046;6.772;2023-02-07T11:26:33;4.40;;;4.00;;
5507;SDS011;2776;51.046;6.772;2023-02-07T11:29:05;4.67;;;3.97;;
5507;SDS011;2776;51.046;6.772;2023-02-07T11:31:38;5.47;;;4.20;;
5507;SDS011;2776;51.046;6.772;2023-02-07T11:34:06;5.03;;;4.07;;
5507;SDS011;2776;51.046;6.772;2023-02-07T11:36:35;4.50;;;3.90;;
5507;SDS011;2776;51.046;6.772;2023-02-07T11:39:08;3.80;;;3.40;;
5507;SDS011;2776;51.046;6.772;2023-02-07T11:41:40;6.70;;;4.53;;
5507;SDS011;2776;51.046;6.772;2023-02-07T11:44:13;4.60;;;3.90;;
5507;SDS011;2776;51.046;6.772;2023-02-07T11:46:42;5.63;;;4.03;;
5507;SDS011;2776;51.046;6.772;2023-02-07T11:49:17;4.60;;;4.10;;
5507;SDS011;2776;51.046;6.772;2023-02-07T11:51:49;4.57;;;3.97;;
5507;SDS011;2776;51.046;6.772;2023-02-07T11:54:19;5.63;;;4.27;;
5507;SDS011;2776;51.046;6.772;2023-02-07T11:56:47;5.17;;;4.20;;
5507;SDS011;2776;51.046;6.772;2023-02-07T11:59:18;5.10;;;4.60;;
5507;SDS011;2776;51.046;6.772;2023-02-07T12:01:47;5.30;;;4.80;;
5507;SDS011;2776;51.046;6.772;2023-02-07T12:04:17;5.10;;;4.53;;
5507;SDS011;2776;51.046;6.772;2023-02-07T12:06:47;5.70;;;4.20;;
5507;SDS011;2776;51.046;6.772;2023-02-07T12:09:22;5.67;;;4.80;;
5507;SDS011;2776;51.046;6.772;2023-02-07T12:11:56;5.83;;;5.13;;
5507;SDS011;2776;51.046;6.772;2023-02-07T12:14:26;4.83;;;4.20;;
5507;SDS011;2776;51.046;6.772;2023-02-07T12:16:58;5.83;;;4.47;;
5507;SDS011;2776;51.046;6.772;2023-02-07T12:19:29;4.80;;;4.30;;
5507;SDS011;2776;51.046;6.772;2023-02-07T12:22:00;8.53;;;4.47;;
5507;SDS011;2776;51.046;6.772;2023-02-07T12:24:34;5.20;;;4.60;;
5507;SDS011;2776;51.046;6.772;2023-02-07T12:27:05;5.20;;;4.53;;
5507;SDS011;2776;51.046;6.772;2023-02-07T12:29:45;6.20;;;4.73;;
5507;SDS011;2776;51.046;6.772;2023-02-07T12:32:20;4.77;;;4.27;;
5507;SDS011;2776;51.046;6.772;2023-02-07T12:34:56;5.00;;;4.30;;
5507;SDS011;2776;51.046;6.772;2023-02-07T12:37:31;4.40;;;4.03;;
5507;SDS011;2776;51.046;6.772;2023-02-07T12:40:11;6.03;;;4.60;;
5507;SDS011;2776;51.046;6.772;2023-02-07T12:42:46;6.17;;;4.80;;
5507;SDS011;2776;51.046;6.772;2023-02-07T12:45:22;6.57;;;4.70;;
5507;SDS011;2776;51.046;6.772;2023-02-07T12:48:00;6.33;;;4.60;;
5507;SDS011;2776;51.046;6.772;2023-02-07T12:50:51;5.13;;;4.60;;
5507;SDS011;2776;51.046;6.772;2023-02-07T12:53:32;5.53;;;4.63;;
5507;SDS011;2776;51.046;6.772;2023-02-07T12:56:15;4.80;;;4.13;;
5507;SDS011;2776;51.046;6.772;2023-02-07T12:58:54;5.07;;;3.80;;
5507;SDS011;2776;51.046;6.772;2023-02-07T13:01:28;5.73;;;4.33;;
5507;SDS011;2776;51.046;6.772;2023-02-07T13:07:06;5.00;;;4.23;;
5507;SDS011;2776;51.046;6.772;2023-02-07T13:09:45;5.97;;;4.83;;
5507;SDS011;2776;51.046;6.772;2023-02-07T13:12:19;4.90;;;4.40;;
5507;SDS011;2776;51.046;6.772;2023-02-07T13:14:54;5.67;;;4.30;;
5507;SDS011;2776;51.046;6.772;2023-02-07T13:17:30;6.73;;;4.47;;
5507;SDS011;2776;51.046;6.772;2023-02-07T13:20:14;5.30;;;4.80;;
5507;SDS011;2776;51.046;6.772;2023-02-07T13:22:55;7.53;;;5.13;;
5507;SDS011;2776;51.046;6.772;2023-02-07T13:25:26;4.33;;;3.90;;
5507;SDS011;2776;51.046;6.772;2023-02-07T13:27:57;4.20;;;3.80;;
5507;SDS011;2776;51.046;6.772;2023-02-07T13:30:28;5.13;;;4.27;;
5507;SDS011;2776;51.046;6.772;2023-02-07T13:32:57;4.47;;;4.03;;
5507;SDS011;2776;51.046;6.772;2023-02-07T13:35:41;5.33;;;4.30;;
5507;SDS011;2776;51.046;6.772;2023-02-07T13:38:11;4.37;;;3.53;;
5507;SDS011;2776;51.046;6.772;2023-02-07T13:40:49;4.80;;;3.77;;
5507;SDS011;2776;51.046;6.772;2023-02-07T13:43:24;3.70;;;3.40;;
5507;SDS011;2776;51.046;6.772;2023-02-07T13:45:59;5.47;;;3.87;;
5507;SDS011;2776;51.046;6.772;2023-02-07T13:48:33;5.53;;;3.83;;
5507;SDS011;2776;51.046;6.772;2023-02-07T13:51:09;3.60;;;3.30;;
5507;SDS011;2776;51.046;6.772;2023-02-07T13:53:45;3.97;;;3.57;;
5507;SDS011;2776;51.046;6.772;2023-02-07T13:56:19;4.53;;;3.70;;
5507;SDS011;2776;51.046;6.772;2023-02-07T13:59:31;4.17;;;3.77;;
5507;SDS011;2776;51.046;6.772;2023-02-07T14:02:12;3.70;;;3.40;;
5507;SDS011;2776;51.046;6.772;2023-02-07T14:04:46;5.27;;;4.00;;
5507;SDS011;2776;51.046;6.772;2023-02-07T14:07:19;4.20;;;3.47;;
5507;SDS011;2776;51.046;6.772;2023-02-07T14:09:50;4.10;;;3.53;;
5507;SDS011;2776;51.046;6.772;2023-02-07T14:12:18;4.80;;;4.10;;
5507;SDS011;2776;51.046;6.772;2023-02-07T14:14:50;4.20;;;3.77;;
5507;SDS011;2776;51.046;6.772;2023-02-07T14:23:13;3.43;;;3.13;;
5507;SDS011;2776;51.046;6.772;2023-02-07T14:25:42;3.70;;;3.30;;
5507;SDS011;2776;51.046;6.772;2023-02-07T14:28:16;3.83;;;3.33;;
5507;SDS011;2776;51.046;6.772;2023-02-07T14:30:57;3.77;;;3.37;;
5507;SDS011;2776;51.046;6.772;2023-02-07T14:33:28;3.93;;;3.53;;
5507;SDS011;2776;51.046;6.772;2023-02-07T14:36:03;3.47;;;2.93;;
5507;SDS011;2776;51.046;6.772;2023-02-07T14:38:58;4.47;;;3.80;;
5507;SDS011;2776;51.046;6.772;2023-02-07T14:41:48;3.90;;;3.50;;
5507;SDS011;2776;51.046;6.772;2023-02-07T14:44:21;3.50;;;3.20;;
5507;SDS011;2776;51.046;6.772;2023-02-07T14:46:52;3.10;;;2.73;;
5507;SDS011;2776;51.046;6.772;2023-02-07T14:49:23;3.30;;;3.00;;
5507;SDS011;2776;51.046;6.772;2023-02-07T14:51:57;4.37;;;3.40;;
5507;SDS011;2776;51.046;6.772;2023-02-07T14:54:26;4.73;;;3.20;;
5507;SDS011;2776;51.046;6.772;2023-02-07T14:57:07;3.40;;;3.10;;
5507;SDS011;2776;51.046;6.772;2023-02-07T14:59:49;3.50;;;3.03;;
5507;SDS011;2776;51.046;6.772;2023-02-07T15:02:28;3.37;;;2.80;;
5507;SDS011;2776;51.046;6.772;2023-02-07T15:04:57;3.03;;;2.73;;
5507;SDS011;2776;51.046;6.772;2023-02-07T15:07:40;3.67;;;3.10;;
5507;SDS011;2776;51.046;6.772;2023-02-07T15:10:12;3.40;;;2.93;;
5507;SDS011;2776;51.046;6.772;2023-02-07T15:12:39;4.10;;;2.77;;
5507;SDS011;2776;51.046;6.772;2023-02-07T15:15:10;3.70;;;3.20;;
5507;SDS011;2776;51.046;6.772;2023-02-07T15:17:45;3.40;;;2.80;;
5507;SDS011;2776;51.046;6.772;2023-02-07T15:20:14;3.57;;;3.23;;
5507;SDS011;2776;51.046;6.772;2023-02-07T15:22:42;3.57;;;2.97;;
5507;SDS011;2776;51.046;6.772;2023-02-07T15:25:13;3.87;;;2.97;;
5507;SDS011;2776;51.046;6.772;2023-02-07T15:27:40;3.97;;;2.87;;
5507;SDS011;2776;51.046;6.772;2023-02-07T15:30:13;2.80;;;2.60;;
5507;SDS011;2776;51.046;6.772;2023-02-07T15:32:45;3.67;;;3.30;;
5507;SDS011;2776;51.046;6.772;2023-02-07T15:35:15;9.17;;;3.47;;
5507;SDS011;2776;51.046;6.772;2023-02-07T15:37:44;6.00;;;4.33;;
5507;SDS011;2776;51.046;6.772;2023-02-07T15:40:13;4.63;;;3.03;;
5507;SDS011;2776;51.046;6.772;2023-02-07T15:42:48;4.53;;;4.10;;
5507;SDS011;2776;51.046;6.772;2023-02-07T15:45:23;3.10;;;2.80;;
5507;SDS011;2776;51.046;6.772;2023-02-07T15:47:59;3.10;;;2.60;;